Time;durP1;ratioP1;P1;durP2;ratioP2;P2;SDS_P1;SDS_P2;PMS_P1;PMS_P2;Temp;Humidity;BMP_temperature;BMP_pressure;BME280_temperature;BME280_humidity;BME280_pressure;Samples;Min_cycle;Max_cycle;Signal;HPM_P1;HPM_P2
2022/07/14 00:00:45;;;;;;;5.70;3.58;;;;;;;26.86;41.09;101640.75;5004820;28;20497;-80
2022/07/14 00:03:12;;;;;;;6.90;3.85;;;;;;;26.85;41.12;101647.28;5005114;28;20057;-81
2022/07/14 00:05:39;;;;;;;3.80;3.47;;;;;;;26.83;41.48;101655.66;5005121;28;20050;-82
2022/07/14 00:08:06;;;;;;;6.53;3.70;;;;;;;26.74;41.60;101637.91;5005296;28;20050;-81
2022/07/14 00:10:33;;;;;;;6.55;3.67;;;;;;;26.93;41.17;101663.34;5006247;28;20061;-81
2022/07/14 00:12:59;;;;;;;5.07;4.53;;;;;;;26.92;40.91;101656.25;5005141;28;20449;-82
2022/07/14 00:15:26;;;;;;;8.82;4.40;;;;;;;26.85;41.32;101636.38;5006077;28;20103;-80
2022/07/14 00:17:55;;;;;;;6.75;4.35;;;;;;;26.93;40.83;101638.00;5005084;28;20050;-81
2022/07/14 00:20:22;;;;;;;4.80;3.95;;;;;;;26.89;40.61;101634.88;5004900;28;20552;-82
2022/07/14 00:22:49;;;;;;;6.28;3.70;;;;;;;27.01;40.50;101646.72;5004889;28;20054;-81
2022/07/14 00:25:15;;;;;;;6.55;4.30;;;;;;;27.01;40.43;101652.19;5004907;28;20457;-82
2022/07/14 00:27:43;;;;;;;4.75;3.85;;;;;;;26.96;40.69;101638.38;5004662;28;20065;-82
2022/07/14 00:30:12;;;;;;;5.77;3.53;;;;;;;26.49;41.18;101596.97;5004836;28;20046;-81
2022/07/14 00:32:39;;;;;;;5.78;3.95;;;;;;;26.81;40.86;101651.47;5004661;28;20300;-81
2022/07/14 00:35:09;;;;;;;9.85;3.45;;;;;;;26.74;41.37;101653.41;5004346;28;20064;-80
2022/07/14 00:37:36;;;;;;;4.05;3.30;;;;;;;26.34;41.35;101596.44;5006217;28;20081;-81
2022/07/14 00:40:04;;;;;;;5.60;3.40;;;;;;;26.62;41.49;101645.09;5004615;28;20046;-83
2022/07/14 00:42:39;;;;;;;5.93;3.53;;;;;;;26.03;41.36;101546.31;5004929;28;20062;-81
2022/07/14 00:45:12;;;;;;;5.35;3.10;;;;;;;26.50;41.24;101619.56;5005746;28;20501;-81
2022/07/14 00:47:39;;;;;;;10.68;3.67;;;;;;;26.50;41.04;101633.19;5006239;28;20046;-81
2022/07/14 00:50:11;;;;;;;12.40;3.63;;;;;;;26.46;41.30;101638.25;5004525;28;20108;-82
2022/07/14 00:52:42;;;;;;;9.15;3.47;;;;;;;26.46;41.40;101648.28;5004889;28;20052;-82
2022/07/14 00:55:10;;;;;;;7.60;3.30;;;;;;;26.43;41.86;101650.41;5006740;28;20466;-82
2022/07/14 00:57:37;;;;;;;3.58;3.28;;;;;;;26.43;41.75;101649.53;5005445;28;20382;-83
2022/07/14 01:00:10;;;;;;;5.30;3.63;;;;;;;26.40;41.83;101641.81;5004397;28;20762;-82
2022/07/14 01:02:36;;;;;;;7.40;3.35;;;;;;;26.31;41.84;101634.94;5004299;28;20277;-82
2022/07/14 01:05:06;;;;;;;3.58;3.25;;;;;;;26.20;41.90;101615.53;5004434;28;20061;-80
2022/07/14 01:07:33;;;;;;;6.40;3.88;;;;;;;26.22;42.01;101613.44;5004337;28;20050;-82
2022/07/14 01:10:00;;;;;;;7.78;3.88;;;;;;;26.30;42.18;101623.22;5006970;28;20362;-81
2022/07/14 01:12:26;;;;;;;4.70;4.10;;;;;;;26.31;41.83;101621.34;5008852;28;20115;-81
2022/07/14 01:14:54;;;;;;;4.22;3.42;;;;;;;26.12;41.90;101582.25;5007924;28;20468;-81
2022/07/14 01:17:21;;;;;;;4.38;3.33;;;;;;;26.40;42.27;101629.03;5007487;28;20054;-81
2022/07/14 01:19:48;;;;;;;4.25;3.17;;;;;;;26.39;41.93;101629.28;5007813;28;20057;-81
2022/07/14 01:22:14;;;;;;;8.43;3.45;;;;;;;26.38;42.25;101638.47;5007667;28;20050;-82
2022/07/14 01:24:41;;;;;;;10.15;4.32;;;;;;;26.37;42.24;101628.66;5008913;28;20054;-81
2022/07/14 01:27:08;;;;;;;4.97;3.35;;;;;;;26.37;42.16;101632.19;5008118;28;20057;-82
2022/07/14 01:29:35;;;;;;;4.97;3.47;;;;;;;26.00;41.72;101573.97;5009699;28;20054;-81
2022/07/14 01:32:02;;;;;;;8.68;3.22;;;;;;;26.04;41.88;101582.53;5008718;28;20517;-81
2022/07/14 01:34:29;;;;;;;4.55;3.05;;;;;;;25.37;41.88;101474.78;5007419;28;20061;-81
2022/07/14 01:36:57;;;;;;;4.68;3.25;;;;;;;25.19;41.73;101442.00;5009150;28;20060;-81
2022/07/14 01:39:23;;;;;;;3.78;3.05;;;;;;;26.29;41.08;101616.13;5007087;28;20066;-81
2022/07/14 01:41:50;;;;;;;3.25;2.70;;;;;;;26.32;40.85;101625.75;5008853;28;20137;-81
2022/07/14 01:44:17;;;;;;;8.80;2.70;;;;;;;26.23;40.74;101615.09;5008461;28;20065;-82
2022/07/14 01:46:43;;;;;;;4.03;3.28;;;;;;;25.97;41.43;101601.59;5008557;28;20339;-82
2022/07/14 01:49:10;;;;;;;2.90;2.63;;;;;;;26.14;41.38;101619.13;5008553;28;20413;-81
2022/07/14 01:51:38;;;;;;;5.32;2.60;;;;;;;26.14;40.77;101624.56;5008350;28;20041;-82
2022/07/14 01:54:04;;;;;;;3.22;2.70;;;;;;;25.56;41.73;101534.75;5006793;28;20046;-80
2022/07/14 01:56:32;;;;;;;5.55;3.30;;;;;;;26.05;41.55;101619.56;5006690;28;20289;-81
2022/07/14 01:59:00;;;;;;;3.20;2.90;;;;;;;25.95;41.80;101614.59;5007133;28;20111;-80
2022/07/14 02:01:39;;;;;;;3.72;3.13;;;;;;;25.58;41.82;101570.69;5007411;28;20054;-83
2022/07/14 02:04:15;;;;;;;4.60;2.90;;;;;;;25.80;41.81;101606.63;5007107;28;20045;-81
2022/07/14 02:06:43;;;;;;;5.78;2.88;;;;;;;24.94;41.60;101469.81;5007233;28;20050;-80
2022/07/14 02:09:10;;;;;;;3.35;3.05;;;;;;;25.88;41.66;101619.22;5007356;28;20080;-82
2022/07/14 02:14:24;;;;;;;6.60;2.85;;;;;;;25.88;41.22;101613.78;5008370;28;20083;-82
2022/07/14 02:16:50;;;;;;;3.15;2.85;;;;;;;25.58;41.46;101587.00;5007102;28;20049;-81
2022/07/14 02:19:17;;;;;;;3.83;2.95;;;;;;;25.50;41.64;101587.25;5007390;28;20053;-81
2022/07/14 02:21:47;;;;;;;2.97;2.78;;;;;;;25.32;41.99;101561.56;5006349;28;20049;-80
2022/07/14 02:24:14;;;;;;;3.10;2.80;;;;;;;25.50;42.03;101592.69;5006475;28;20456;-80
2022/07/14 02:26:42;;;;;;;3.83;3.42;;;;;;;25.40;42.25;101579.53;5007078;28;20054;-80
2022/07/14 02:29:09;;;;;;;4.88;3.13;;;;;;;24.80;42.44;101492.59;5006786;28;20050;-80
2022/07/14 02:31:36;;;;;;;3.45;3.15;;;;;;;25.34;42.41;101570.34;5006605;28;20452;-80
2022/07/14 02:34:07;;;;;;;4.03;3.05;;;;;;;25.44;42.34;101585.34;5006689;28;20276;-80
2022/07/14 02:36:33;;;;;;;4.25;3.40;;;;;;;25.54;42.58;101607.53;5006630;28;20054;-80
2022/07/14 02:39:03;;;;;;;3.65;3.35;;;;;;;25.53;42.56;101603.13;5007855;28;20049;-80
2022/07/14 02:41:29;;;;;;;3.53;2.97;;;;;;;25.43;42.69;101589.13;5010606;28;20080;-80
2022/07/14 02:43:56;;;;;;;3.30;3.00;;;;;;;25.46;42.70;101594.13;5014473;28;20611;-79
2022/07/14 02:46:26;;;;;;;7.20;2.40;;;;;;;25.49;42.38;101594.56;5022836;28;20045;-82
2022/07/14 02:48:54;;;;;;;3.40;2.65;;;;;;;25.44;42.53;101602.53;5031316;28;20109;-81
2022/07/14 02:51:21;;;;;;;5.68;3.45;;;;;;;25.50;42.55;101606.28;5030234;28;20062;-82
2022/07/14 02:53:47;;;;;;;3.53;3.22;;;;;;;25.35;42.66;101590.19;5026581;28;20042;-81
2022/07/14 02:56:16;;;;;;;3.85;2.65;;;;;;;25.23;42.50;101568.25;5023081;28;20058;-81
2022/07/14 02:58:43;;;;;;;5.05;3.10;;;;;;;25.42;42.50;101603.78;5009751;28;20058;-80
2022/07/14 03:01:10;;;;;;;3.17;2.95;;;;;;;24.76;42.74;101495.94;5007236;28;20445;-80
2022/07/14 03:03:38;;;;;;;5.18;2.80;;;;;;;25.38;42.78;101597.91;5010255;28;20093;-80
2022/07/14 03:06:19;;;;;;;7.53;3.20;;;;;;;25.37;42.54;101607.97;5010457;28;20049;-82
2022/07/14 03:08:45;;;;;;;7.97;3.25;;;;;;;25.27;42.96;101602.13;5011579;28;20058;-81
2022/07/14 03:11:12;;;;;;;6.38;2.83;;;;;;;25.22;42.87;101599.19;5006471;28;20050;-81
2022/07/14 03:13:40;;;;;;;4.45;2.90;;;;;;;25.15;43.47;101599.16;5006218;28;20046;-81
2022/07/14 03:16:09;;;;;;;3.67;2.30;;;;;;;25.16;43.32;101602.69;5006233;28;20548;-80
2022/07/14 03:18:37;;;;;;;3.58;3.05;;;;;;;25.14;43.29;101602.06;5005888;28;20053;-80
2022/07/14 03:21:06;;;;;;;3.83;3.42;;;;;;;25.15;43.64;101609.19;5006468;28;20060;-81
2022/07/14 03:23:33;;;;;;;4.93;3.17;;;;;;;25.13;43.52;101605.84;5005833;28;20112;-81
2022/07/14 03:26:01;;;;;;;6.43;3.53;;;;;;;25.08;43.59;101594.78;5006158;28;20050;-80
2022/07/14 03:28:28;;;;;;;3.55;3.20;;;;;;;25.12;43.32;101598.72;5006258;28;20057;-81
2022/07/14 03:30:56;;;;;;;5.60;3.28;;;;;;;25.05;43.28;101587.88;5007111;28;20675;-81
2022/07/14 03:33:24;;;;;;;4.85;3.10;;;;;;;25.08;43.42;101598.31;5005592;28;20526;-81
2022/07/14 03:35:50;;;;;;;3.65;2.97;;;;;;;25.28;43.13;101603.78;5005694;28;20041;-80
2022/07/14 03:38:17;;;;;;;3.63;2.70;;;;;;;25.29;42.80;101610.91;5005701;28;20049;-81
2022/07/14 03:41:06;;;;;;;10.02;3.10;;;;;;;24.92;42.98;101558.81;4967928;28;20066;-79
2022/07/14 03:43:34;;;;;;;10.75;3.58;;;;;;;25.07;43.54;101602.06;4966830;28;20055;-80
2022/07/14 03:46:02;;;;;;;6.00;3.00;;;;;;;24.97;43.73;101606.25;4967619;28;20299;-80
2022/07/14 03:48:29;;;;;;;4.18;2.72;;;;;;;24.90;43.45;101617.09;4982343;28;20069;-81
2022/07/14 03:50:59;;;;;;;4.30;2.88;;;;;;;24.71;43.51;101589.72;4966246;28;20072;-81
2022/07/14 03:53:26;;;;;;;3.00;2.80;;;;;;;24.74;43.82;101607.47;4982526;28;20046;-81
2022/07/14 03:55:53;;;;;;;8.73;2.97;;;;;;;24.67;44.18;101612.88;5005505;28;20050;-80
2022/07/14 03:58:19;;;;;;;4.07;3.13;;;;;;;24.55;44.08;101595.53;5006029;28;20154;-80
2022/07/14 04:00:47;;;;;;;4.50;3.05;;;;;;;24.51;44.29;101599.69;5005429;28;20046;-81
2022/07/14 04:03:14;;;;;;;4.05;3.67;;;;;;;24.53;44.70;101601.16;5005005;28;20164;-81
2022/07/14 04:05:43;;;;;;;8.20;3.80;;;;;;;23.91;44.31;101499.09;5006863;28;20501;-81
2022/07/14 04:08:10;;;;;;;4.65;2.63;;;;;;;24.41;44.58;101570.19;5006538;28;20057;-82
2022/07/14 04:10:36;;;;;;;2.95;2.75;;;;;;;24.48;44.40;101562.94;5005364;28;20524;-80
2022/07/14 04:13:04;;;;;;;6.53;3.40;;;;;;;24.79;44.00;101604.16;5005065;28;20254;-81
2022/07/14 04:15:31;;;;;;;4.10;2.63;;;;;;;24.71;43.86;101570.72;5005407;28;20501;-81
2022/07/14 04:17:58;;;;;;;6.72;2.70;;;;;;;23.66;43.81;101393.03;5004786;28;20453;-79
2022/07/14 04:20:25;;;;;;;3.60;2.85;;;;;;;24.69;43.68;101563.81;5005005;28;20480;-81
2022/07/14 04:22:52;;;;;;;5.53;3.38;;;;;;;24.65;43.53;101554.41;5005090;28;20473;-81
2022/07/14 04:25:26;;;;;;;6.15;3.63;;;;;;;24.30;43.46;101494.81;5004961;28;20046;-79
2022/07/14 04:27:53;;;;;;;5.68;3.78;;;;;;;25.00;43.68;101584.94;5005108;28;20050;-81
2022/07/14 04:30:20;;;;;;;4.38;3.40;;;;;;;25.08;44.14;101592.06;5004846;28;20395;-81
2022/07/14 04:32:47;;;;;;;4.45;3.10;;;;;;;25.07;44.01;101593.09;5005375;28;20229;-80
2022/07/14 04:35:13;;;;;;;7.55;3.72;;;;;;;24.94;44.67;101570.31;5004776;28;20078;-81
2022/07/14 04:37:40;;;;;;;5.65;3.63;;;;;;;25.01;44.61;101586.59;5005154;28;20050;-78
2022/07/14 04:40:07;;;;;;;6.57;3.10;;;;;;;25.06;44.03;101592.25;5005114;28;20057;-80
2022/07/14 04:42:34;;;;;;;4.85;3.53;;;;;;;24.93;44.18;101571.34;5003356;28;20445;-80
2022/07/14 04:45:00;;;;;;;3.15;2.95;;;;;;;25.09;44.67;101593.72;5005732;28;20132;-81
2022/07/14 04:47:27;;;;;;;5.80;3.22;;;;;;;25.10;44.20;101588.09;5007022;28;20045;-81
2022/07/14 04:52:49;;;;;;;6.68;3.58;;;;;;;25.18;44.90;101587.06;4985347;28;20140;-81
2022/07/14 04:55:16;;;;;;;6.45;2.88;;;;;;;25.02;44.93;101549.41;5006990;28;20038;-80
2022/07/14 04:57:43;;;;;;;5.47;3.35;;;;;;;25.02;44.28;101543.97;5006468;28;20061;-81
2022/07/14 05:00:11;;;;;;;3.65;3.35;;;;;;;25.29;44.72;101583.72;5006735;28;20473;-81
2022/07/14 05:02:38;;;;;;;6.00;3.15;;;;;;;25.15;44.71;101538.56;5006485;28;20108;-80
2022/07/14 05:05:05;;;;;;;6.90;3.80;;;;;;;25.39;44.55;101575.16;4984710;28;20050;-82
2022/07/14 05:07:32;;;;;;;6.60;4.70;;;;;;;25.56;44.13;101587.25;4987197;28;20050;-81
2022/07/14 05:10:00;;;;;;;5.00;3.92;;;;;;;25.73;43.25;101590.34;4986657;28;20046;-80
2022/07/14 05:12:27;;;;;;;8.60;4.47;;;;;;;25.39;43.08;101518.06;4987107;28;20062;-81
2022/07/14 05:14:54;;;;;;;8.90;3.80;;;;;;;25.36;42.70;101510.31;4986895;28;20138;-81
2022/07/14 05:17:21;;;;;;;5.70;3.72;;;;;;;25.83;42.76;101581.75;5003362;28;20066;-80
2022/07/14 05:19:51;;;;;;;6.20;3.70;;;;;;;25.78;43.78;101573.38;4980528;28;20088;-81
2022/07/14 05:22:18;;;;;;;8.02;3.67;;;;;;;25.57;42.84;101530.97;4974175;28;20157;-82
2022/07/14 05:24:45;;;;;;;8.40;3.03;;;;;;;25.99;43.04;101610.38;4986469;28;20078;-80
2022/07/14 05:27:12;;;;;;;5.78;3.72;;;;;;;26.08;42.83;101609.09;4986429;28;20050;-81
2022/07/14 05:29:40;;;;;;;9.32;3.33;;;;;;;26.11;42.79;101608.66;5002916;28;20058;-80
2022/07/14 05:32:07;;;;;;;6.65;3.17;;;;;;;26.17;42.70;101591.47;4982706;28;20510;-80
2022/07/14 05:34:40;;;;;;;4.95;3.70;;;;;;;26.23;42.89;101590.59;4985735;28;20104;-80
2022/07/14 05:37:07;;;;;;;10.55;4.00;;;;;;;26.13;42.72;101564.91;4986123;28;20465;-82
2022/07/14 05:39:33;;;;;;;4.82;3.47;;;;;;;26.44;42.02;101600.34;4994056;28;20049;-81
2022/07/14 05:42:00;;;;;;;4.43;3.63;;;;;;;26.55;42.18;101596.09;5005712;28;20188;-81
2022/07/14 05:44:27;;;;;;;7.15;3.40;;;;;;;26.40;42.11;101560.97;5005569;28;20441;-79
2022/07/14 05:46:53;;;;;;;5.65;3.60;;;;;;;26.66;41.49;101593.75;4998062;28;20046;-81
2022/07/14 05:49:20;;;;;;;9.27;4.00;;;;;;;26.77;41.55;101595.75;4985178;28;20595;-80
2022/07/14 05:51:50;;;;;;;4.90;3.28;;;;;;;26.38;40.41;101518.69;4966973;28;20562;-81
2022/07/14 05:54:16;;;;;;;10.10;5.13;;;;;;;26.86;40.72;101576.22;4997539;28;20053;-80
2022/07/14 05:56:43;;;;;;;7.95;4.22;;;;;;;26.92;40.43;101590.84;5004849;28;20058;-81
2022/07/14 05:59:10;;;;;;;8.32;3.33;;;;;;;26.94;40.40;101580.53;5006875;28;20062;-81
2022/07/14 06:01:56;;;;;;;8.05;4.00;;;;;;;26.82;40.46;101560.53;5006994;28;20482;-82
2022/07/14 06:04:23;;;;;;;6.35;3.30;;;;;;;26.44;39.93;101496.06;5006822;28;20066;-81
2022/07/14 06:06:51;;;;;;;7.03;3.38;;;;;;;27.05;40.28;101608.97;5006752;28;20513;-81
2022/07/14 06:09:17;;;;;;;5.30;3.00;;;;;;;26.85;40.23;101555.47;5006508;28;20088;-81
2022/07/14 06:11:45;;;;;;;3.78;2.75;;;;;;;27.13;40.47;101588.78;5006806;28;20049;-81
2022/07/14 06:14:14;;;;;;;4.97;3.00;;;;;;;27.16;40.29;101594.66;4978400;28;20058;-80
2022/07/14 06:16:41;;;;;;;5.10;3.85;;;;;;;26.47;39.89;101459.38;4966468;28;20045;-81
2022/07/14 06:19:08;;;;;;;7.13;3.55;;;;;;;27.27;39.82;101580.31;4967275;28;20141;-81
2022/07/14 06:21:42;;;;;;;6.20;3.28;;;;;;;27.41;40.24;101586.47;4966972;28;20183;-81
2022/07/14 06:24:08;;;;;;;4.60;2.97;;;;;;;26.78;40.06;101466.72;4967169;28;20126;-81
2022/07/14 06:26:35;;;;;;;7.30;3.25;;;;;;;27.25;38.87;101529.78;4966151;28;20502;-81
2022/07/14 06:29:02;;;;;;;5.70;2.78;;;;;;;27.69;38.50;101579.66;4966180;28;20054;-82
2022/07/14 06:31:33;;;;;;;4.50;2.95;;;;;;;27.76;37.84;101561.34;4965472;28;20074;-80
2022/07/14 06:34:01;;;;;;;10.40;3.83;;;;;;;27.92;38.41;101579.88;4981160;28;20145;-82
2022/07/14 06:36:27;;;;;;;6.28;3.03;;;;;;;27.98;38.97;101580.00;4965154;28;20062;-81
2022/07/14 06:38:54;;;;;;;5.55;2.72;;;;;;;28.06;39.38;101579.69;4970067;28;20043;-80
2022/07/14 06:41:21;;;;;;;10.80;2.95;;;;;;;28.12;39.81;101593.25;5005344;28;20045;-81
2022/07/14 06:43:48;;;;;;;6.47;3.03;;;;;;;28.19;39.67;101578.72;5005408;28;20049;-81
2022/07/14 06:46:16;;;;;;;9.27;3.20;;;;;;;28.30;40.32;101594.28;5007569;28;20656;-82
2022/07/14 06:48:43;;;;;;;9.30;4.22;;;;;;;28.32;39.43;101593.00;5006602;28;20054;-82
2022/07/14 06:51:10;;;;;;;7.07;3.50;;;;;;;28.43;39.37;101598.75;5006650;28;20057;-81
2022/07/14 06:53:37;;;;;;;8.52;4.15;;;;;;;28.49;39.00;101597.84;5006065;28;20140;-81
2022/07/14 06:56:04;;;;;;;9.02;3.75;;;;;;;28.52;39.13;101597.38;5006499;28;20050;-81
2022/07/14 06:58:32;;;;;;;10.77;3.03;;;;;;;28.52;39.18;101581.84;5006029;28;20054;-81
2022/07/14 07:00:59;;;;;;;8.95;3.78;;;;;;;28.51;38.34;101569.22;5006294;28;20042;-81
2022/07/14 07:03:26;;;;;;;10.27;4.30;;;;;;;28.63;38.20;101582.09;5005585;28;20069;-82
2022/07/14 07:08:37;;;;;;;5.95;3.67;;;;;;;28.66;38.15;101563.34;5006801;28;20485;-81
2022/07/14 07:11:04;;;;;;;8.32;3.60;;;;;;;28.70;37.68;101555.53;5007420;28;20113;-82
2022/07/14 07:13:31;;;;;;;8.85;3.58;;;;;;;29.00;37.36;101595.59;5005780;28;20085;-82
2022/07/14 07:16:03;;;;;;;10.00;3.00;;;;;;;28.72;37.98;101542.47;5005903;28;20057;-81
2022/07/14 07:18:31;;;;;;;6.78;3.40;;;;;;;29.06;36.91;101583.75;5006068;28;20057;-81
2022/07/14 07:20:58;;;;;;;8.60;2.95;;;;;;;29.12;36.42;101591.03;5007292;28;20061;-81
2022/07/14 07:23:25;;;;;;;5.97;3.08;;;;;;;29.18;35.97;101590.09;5005936;28;20425;-81
2022/07/14 07:25:53;;;;;;;7.93;3.45;;;;;;;29.13;35.83;101571.66;5006695;28;20497;-81
2022/07/14 07:28:19;;;;;;;3.63;3.03;;;;;;;29.35;36.15;101595.69;5005733;28;20073;-81
2022/07/14 07:30:46;;;;;;;4.32;3.58;;;;;;;28.86;35.32;101504.81;5006724;28;20112;-81
2022/07/14 07:33:13;;;;;;;11.65;2.92;;;;;;;28.81;35.34;101488.28;5005778;28;20100;-83
2022/07/14 07:35:42;;;;;;;5.47;2.85;;;;;;;29.46;34.84;101594.84;5005302;28;20046;-81
2022/07/14 07:38:09;;;;;;;2.88;2.20;;;;;;;29.59;34.03;101596.50;5005520;28;20450;-82
2022/07/14 07:40:36;;;;;;;5.80;2.60;;;;;;;29.39;33.59;101553.91;5005127;28;20061;-81
2022/07/14 07:43:03;;;;;;;5.07;2.60;;;;;;;29.66;32.83;101585.41;5005155;28;20045;-78
2022/07/14 07:45:30;;;;;;;5.45;2.42;;;;;;;29.51;33.11;101556.66;5006600;28;20184;-79
2022/07/14 07:47:56;;;;;;;4.47;2.50;;;;;;;29.73;32.27;101583.41;5006458;28;20537;-79
2022/07/14 07:50:23;;;;;;;4.90;2.42;;;;;;;29.59;32.89;101550.81;5007376;28;20053;-80
2022/07/14 07:52:50;;;;;;;6.53;2.67;;;;;;;29.66;32.85;101547.97;5007254;28;20149;-82
2022/07/14 07:55:19;;;;;;;7.53;2.92;;;;;;;29.58;32.51;101534.63;5006372;28;20053;-82
2022/07/14 07:57:52;;;;;;;4.57;2.70;;;;;;;29.73;32.90;101553.31;5007449;28;20149;-82
2022/07/14 08:00:20;;;;;;;4.10;2.50;;;;;;;29.88;32.50;101570.06;5006066;28;20061;-81
2022/07/14 08:02:48;;;;;;;4.82;2.80;;;;;;;30.09;32.93;101579.53;5006919;28;20282;-80
2022/07/14 08:05:17;;;;;;;4.57;2.67;;;;;;;30.19;32.33;101589.84;5007299;28;20057;-79
2022/07/14 08:08:07;;;;;;;7.55;2.90;;;;;;;30.06;32.42;101573.72;5005763;28;20048;-81
2022/07/14 08:10:35;;;;;;;6.30;2.72;;;;;;;29.93;32.66;101553.75;5005958;28;20143;-80
2022/07/14 08:13:03;;;;;;;8.68;3.20;;;;;;;30.34;32.25;101587.44;5005799;28;20078;-81
2022/07/14 08:15:29;;;;;;;10.75;3.33;;;;;;;30.38;32.29;101588.59;5005155;28;20057;-81
2022/07/14 08:17:56;;;;;;;7.22;2.60;;;;;;;30.30;31.87;101575.31;5005700;28;20050;-82
2022/07/14 08:20:23;;;;;;;6.93;2.83;;;;;;;30.42;31.17;101578.00;5006861;28;20062;-82
2022/07/14 08:22:51;;;;;;;3.92;2.58;;;;;;;30.50;30.98;101585.81;5009646;28;20049;-83
2022/07/14 08:25:19;;;;;;;5.13;3.20;;;;;;;30.29;31.41;101534.47;5009240;28;20737;-82
2022/07/14 08:27:48;;;;;;;3.83;2.90;;;;;;;30.71;31.08;101576.06;5009147;28;20054;-83
2022/07/14 08:30:15;;;;;;;6.32;3.42;;;;;;;30.77;31.28;101580.53;5009207;28;20050;-82
2022/07/14 08:32:45;;;;;;;3.97;3.20;;;;;;;30.15;31.17;101474.50;5008877;28;20057;-82
2022/07/14 08:35:14;;;;;;;10.68;3.33;;;;;;;30.24;29.54;101451.13;5008838;28;20061;-81
2022/07/14 08:37:41;;;;;;;9.73;2.45;;;;;;;31.21;29.17;101577.16;5009599;28;20301;-82
2022/07/14 08:40:17;;;;;;;3.75;2.67;;;;;;;31.25;29.57;101583.81;5010132;28;20038;-82
2022/07/14 08:42:50;;;;;;;3.22;2.38;;;;;;;31.30;28.52;101579.22;5008821;28;20295;-81
2022/07/14 08:45:19;;;;;;;2.63;1.77;;;;;;;31.32;26.90;101578.16;5008632;28;20500;-82
2022/07/14 08:47:47;;;;;;;3.60;2.13;;;;;;;31.04;26.31;101547.00;5008318;28;20058;-82
2022/07/14 08:50:17;;;;;;;7.35;2.40;;;;;;;30.47;26.90;101451.25;5008850;28;20046;-83
2022/07/14 08:52:45;;;;;;;7.25;2.15;;;;;;;30.82;27.49;101517.56;5008207;28;20501;-83
2022/07/14 08:55:17;;;;;;;3.88;2.38;;;;;;;31.09;28.33;101575.34;5008580;28;20485;-82
2022/07/14 08:57:44;;;;;;;7.63;2.30;;;;;;;31.12;29.71;101563.06;5009259;28;20042;-83
2022/07/14 09:00:18;;;;;;;3.85;2.70;;;;;;;30.82;30.18;101501.13;5008661;28;20470;-82
2022/07/14 09:02:53;;;;;;;4.47;2.55;;;;;;;31.66;28.28;101574.28;5008550;28;20064;-83
2022/07/14 09:05:41;;;;;;;3.03;2.13;;;;;;;30.68;28.26;101401.16;5008747;28;20050;-83
2022/07/14 09:08:09;;;;;;;3.95;2.40;;;;;;;31.89;27.87;101564.13;5009696;28;20092;-82
2022/07/14 09:10:38;;;;;;;2.38;2.17;;;;;;;30.74;28.18;101382.88;5009699;28;20172;-82
2022/07/14 09:13:25;;;;;;;4.00;2.50;;;;;;;31.91;28.82;101567.44;5009623;28;20141;-84
2022/07/14 09:16:16;;;;;;;4.53;2.63;;;;;;;31.97;29.51;101554.63;5008183;28;20316;-83
2022/07/14 09:19:01;;;;;;;9.77;2.85;;;;;;;32.10;28.44;101548.75;5008152;28;20089;-82
2022/07/14 09:21:32;;;;;;;5.70;2.58;;;;;;;31.20;26.67;101358.84;5007044;28;20054;-82
2022/07/14 09:23:59;;;;;;;2.90;2.30;;;;;;;31.73;26.75;101462.38;4968881;28;20058;-83
2022/07/14 09:26:26;;;;;;;5.90;2.53;;;;;;;32.51;25.20;101558.28;4967914;28;20109;-83
2022/07/14 09:28:54;;;;;;;3.22;2.22;;;;;;;32.29;24.65;101530.00;4968574;28;20066;-83
2022/07/14 09:31:25;;;;;;;3.88;2.45;;;;;;;32.03;24.92;101494.03;4968544;28;20121;-82
2022/07/14 09:34:01;;;;;;;4.70;2.13;;;;;;;32.15;24.15;101450.75;4970131;28;20046;-84
2022/07/14 09:36:36;;;;;;;2.50;2.00;;;;;;;32.31;25.01;101484.69;4968957;28;20046;-84
2022/07/14 09:39:06;;;;;;;2.95;1.88;;;;;;;31.88;24.72;101425.22;4977071;28;20277;-83
2022/07/14 09:41:48;;;;;;;6.22;2.30;;;;;;;32.48;25.10;101498.31;5007430;28;20057;-84
2022/07/14 09:44:17;;;;;;;3.45;2.17;;;;;;;31.89;24.59;101374.69;5006643;28;20056;-84
2022/07/14 09:46:46;;;;;;;2.35;2.15;;;;;;;33.02;23.62;101548.81;5007948;28;20305;-81
2022/07/14 09:49:15;;;;;;;5.72;2.20;;;;;;;32.75;23.17;101457.03;5005854;28;20061;-80
2022/07/14 09:51:54;;;;;;;2.33;1.90;;;;;;;33.37;22.67;101538.03;5008931;28;20057;-82
2022/07/14 09:54:50;;;;;;;3.78;2.17;;;;;;;33.37;20.96;101538.03;5008548;28;20050;-82
2022/07/14 09:57:17;;;;;;;2.25;2.05;;;;;;;33.48;22.67;101535.34;5006056;28;20089;-82
2022/07/14 09:59:52;;;;;;;4.95;2.00;;;;;;;33.77;21.99;101531.09;5007858;28;20046;-81
2022/07/14 10:02:22;;;;;;;3.83;2.55;;;;;;;33.45;22.17;101486.31;5006528;28;20516;-83
2022/07/14 10:04:50;;;;;;;1.95;1.70;;;;;;;33.86;22.29;101534.13;5004357;28;20061;-82
2022/07/14 10:07:18;;;;;;;2.28;1.83;;;;;;;34.02;21.83;101529.50;5006770;28;20129;-82
2022/07/14 10:09:55;;;;;;;6.93;2.40;;;;;;;33.90;21.15;101457.31;5008748;28;20141;-84
2022/07/14 10:12:26;;;;;;;4.70;2.03;;;;;;;33.80;21.93;101456.19;5007121;28;20565;-84
2022/07/14 10:14:53;;;;;;;10.02;2.53;;;;;;;33.24;22.54;101361.63;5007166;28;20065;-83
2022/07/14 10:17:21;;;;;;;5.05;2.20;;;;;;;34.22;22.27;101495.69;5008259;28;20049;-83
2022/07/14 10:19:49;;;;;;;4.30;1.83;;;;;;;33.41;21.52;101341.03;5007177;28;20046;-85
2022/07/14 10:22:18;;;;;;;3.42;1.50;;;;;;;34.49;21.87;101503.69;5007905;28;20057;-79
2022/07/14 10:24:47;;;;;;;7.75;2.40;;;;;;;34.45;21.35;101472.28;5007118;28;20065;-84
2022/07/14 10:27:17;;;;;;;2.63;1.60;;;;;;;34.96;20.30;101510.88;5006768;28;20057;-82
2022/07/14 10:29:52;;;;;;;1.80;1.65;;;;;;;34.76;20.05;101484.16;5007941;28;20280;-83
2022/07/14 10:32:30;;;;;;;3.33;1.90;;;;;;;34.90;18.82;101473.34;5006589;28;20069;-83
2022/07/14 10:35:24;;;;;;;3.70;2.08;;;;;;;35.38;19.10;101508.88;5006508;28;20054;-83
2022/07/14 10:38:23;;;;;;;1.50;1.40;;;;;;;35.65;17.71;101502.97;5006412;28;20057;-84
2022/07/14 10:40:57;;;;;;;1.63;1.40;;;;;;;35.63;16.85;101483.91;5002689;28;20054;-84
2022/07/14 10:43:27;;;;;;;3.38;1.30;;;;;;;35.43;17.84;101448.94;5003944;28;20065;-84
2022/07/14 10:45:55;;;;;;;4.32;1.40;;;;;;;35.90;18.14;101497.31;5004289;28;20053;-84
2022/07/14 10:48:32;;;;;;;4.47;1.50;;;;;;;35.70;17.36;101454.06;4984530;28;20056;-84
2022/07/14 10:51:29;;;;;;;6.30;1.25;;;;;;;36.05;16.62;101470.72;4984559;28;20054;-85
2022/07/14 10:54:04;;;;;;;2.45;1.30;;;;;;;36.16;16.53;101466.78;4989543;28;20052;-84
2022/07/14 10:57:07;;;;;;;1.20;0.70;;;;;;;36.46;16.64;101486.97;5004275;28;20125;-85
2022/07/14 10:59:37;;;;;;;1.50;1.00;;;;;;;36.44;16.06;101450.53;5004304;28;20065;-85
2022/07/14 11:02:15;;;;;;;2.08;1.23;;;;;;;36.57;15.34;101439.63;4991221;28;20066;-85
2022/07/14 11:05:04;;;;;;;4.10;1.48;;;;;;;36.96;14.97;101479.34;4983271;28;20446;-84
2022/07/14 11:07:46;;;;;;;1.42;1.27;;;;;;;36.91;15.27;101466.38;4983930;28;20076;-84
2022/07/14 11:10:19;;;;;;;2.60;1.42;;;;;;;36.76;15.43;101414.81;4980408;28;20050;-84
2022/07/14 11:13:09;;;;;;;4.10;1.55;;;;;;;37.32;16.39;101467.91;4965068;28;20149;-85
2022/07/14 11:15:49;;;;;;;2.90;1.27;;;;;;;37.46;16.45;101471.59;4965206;28;20102;-85
2022/07/14 11:18:25;;;;;;;2.10;1.65;;;;;;;37.67;15.99;101466.59;4968278;28;20507;-84
2022/07/14 11:21:11;;;;;;;3.20;1.40;;;;;;;37.62;16.90;101453.66;4967305;28;20655;-84
2022/07/14 11:23:50;;;;;;;3.28;1.48;;;;;;;37.93;16.41;101463.47;4965190;28;20491;-84
2022/07/14 11:26:32;;;;;;;5.72;1.58;;;;;;;38.14;16.28;101464.03;4967006;28;20046;-84
2022/07/14 11:29:02;;;;;;;7.13;2.00;;;;;;;38.20;16.61;101452.53;4966154;28;20054;-84
2022/07/14 11:31:52;;;;;;;1.60;1.40;;;;;;;38.26;16.19;101465.19;4966357;28;20085;-85
2022/07/14 11:37:19;;;;;;;9.73;1.90;;;;;;;38.25;16.36;101446.88;4968225;28;20051;-83
2022/07/14 11:40:43;;;;;;;8.60;1.88;;;;;;;38.29;16.21;101455.44;4991180;28;20061;-82
2022/07/14 11:43:28;;;;;;;8.15;1.75;;;;;;;38.01;16.12;101369.44;5005831;28;20437;-82
2022/07/14 11:45:56;;;;;;;1.75;1.40;;;;;;;38.57;16.42;101433.34;5005738;28;20109;-83
2022/07/14 11:48:28;;;;;;;3.28;2.00;;;;;;;38.45;16.37;101412.47;5005774;28;20076;-84